sensor_id;sensor_type;location;lat;lon;timestamp;P1;durP1;ratioP1;P2;durP2;ratioP2
16440;SDS011;8330;-33.858;151.184;2023-09-19T00:01:39;6.05;;;3.10;;
16440;SDS011;8330;-33.858;151.184;2023-09-19T00:04:11;5.35;;;3.20;;
16440;SDS011;8330;-33.858;151.184;2023-09-19T00:06:41;4.28;;;3.50;;
16440;SDS011;8330;-33.858;151.184;2023-09-19T00:09:13;4.15;;;3.10;;
16440;SDS011;8330;-33.858;151.184;2023-09-19T00:11:46;3.45;;;3.00;;
16440;SDS011;8330;-33.858;151.184;2023-09-19T00:14:19;4.90;;;3.63;;
16440;SDS011;8330;-33.858;151.184;2023-09-19T00:16:50;6.20;;;3.10;;
16440;SDS011;8330;-33.858;151.184;2023-09-19T00:19:21;3.35;;;3.05;;
16440;SDS011;8330;-33.858;151.184;2023-09-19T00:21:52;4.90;;;3.20;;
16440;SDS011;8330;-33.858;151.184;2023-09-19T00:24:23;3.67;;;3.10;;
16440;SDS011;8330;-33.858;151.184;2023-09-19T00:26:56;4.88;;;3.08;;
16440;SDS011;8330;-33.858;151.184;2023-09-19T00:29:27;4.00;;;3.00;;
16440;SDS011;8330;-33.858;151.184;2023-09-19T00:31:58;4.28;;;3.13;;
16440;SDS011;8330;-33.858;151.184;2023-09-19T00:34:29;5.05;;;3.15;;
16440;SDS011;8330;-33.858;151.184;2023-09-19T00:37:02;3.20;;;2.83;;
16440;SDS011;8330;-33.858;151.184;2023-09-19T00:39:33;5.18;;;3.10;;
16440;SDS011;8330;-33.858;151.184;2023-09-19T00:42:05;3.10;;;2.70;;
16440;SDS011;8330;-33.858;151.184;2023-09-19T00:44:36;5.75;;;3.15;;
16440;SDS011;8330;-33.858;151.184;2023-09-19T00:47:07;3.50;;;3.20;;
16440;SDS011;8330;-33.858;151.184;2023-09-19T00:49:41;3.38;;;3.00;;
16440;SDS011;8330;-33.858;151.184;2023-09-19T00:52:19;3.25;;;2.95;;
16440;SDS011;8330;-33.858;151.184;2023-09-19T00:54:50;4.28;;;3.25;;
16440;SDS011;8330;-33.858;151.184;2023-09-19T00:57:22;3.00;;;2.80;;
16440;SDS011;8330;-33.858;151.184;2023-09-19T00:59:54;4.75;;;3.05;;
16440;SDS011;8330;-33.858;151.184;2023-09-19T01:02:26;3.30;;;3.00;;
16440;SDS011;8330;-33.858;151.184;2023-09-19T01:04:58;3.78;;;2.80;;
16440;SDS011;8330;-33.858;151.184;2023-09-19T01:07:30;8.15;;;3.03;;
16440;SDS011;8330;-33.858;151.184;2023-09-19T01:10:02;5.50;;;3.00;;
16440;SDS011;8330;-33.858;151.184;2023-09-19T01:12:39;5.60;;;3.25;;
16440;SDS011;8330;-33.858;151.184;2023-09-19T01:15:21;3.13;;;2.83;;
16440;SDS011;8330;-33.858;151.184;2023-09-19T01:18:02;5.55;;;2.58;;
16440;SDS011;8330;-33.858;151.184;2023-09-19T01:20:45;9.02;;;3.10;;
16440;SDS011;8330;-33.858;151.184;2023-09-19T01:23:28;6.85;;;3.03;;
16440;SDS011;8330;-33.858;151.184;2023-09-19T01:26:18;4.70;;;3.00;;
16440;SDS011;8330;-33.858;151.184;2023-09-19T01:29:06;3.50;;;2.95;;
16440;SDS011;8330;-33.858;151.184;2023-09-19T01:31:57;4.07;;;2.90;;
16440;SDS011;8330;-33.858;151.184;2023-09-19T01:34:43;4.43;;;3.08;;
16440;SDS011;8330;-33.858;151.184;2023-09-19T01:37:16;3.42;;;3.13;;
16440;SDS011;8330;-33.858;151.184;2023-09-19T01:39:52;5.00;;;3.15;;
16440;SDS011;8330;-33.858;151.184;2023-09-19T01:42:35;4.53;;;3.20;;
16440;SDS011;8330;-33.858;151.184;2023-09-19T01:45:11;7.57;;;2.72;;
16440;SDS011;8330;-33.858;151.184;2023-09-19T01:47:50;3.38;;;3.08;;
16440;SDS011;8330;-33.858;151.184;2023-09-19T01:50:26;2.95;;;2.75;;
16440;SDS011;8330;-33.858;151.184;2023-09-19T01:53:04;5.40;;;3.10;;
16440;SDS011;8330;-33.858;151.184;2023-09-19T01:55:41;3.45;;;3.15;;
16440;SDS011;8330;-33.858;151.184;2023-09-19T01:58:20;3.08;;;2.70;;
16440;SDS011;8330;-33.858;151.184;2023-09-19T02:00:59;3.47;;;3.10;;
16440;SDS011;8330;-33.858;151.184;2023-09-19T02:03:34;5.10;;;2.88;;
16440;SDS011;8330;-33.858;151.184;2023-09-19T02:06:05;4.60;;;2.95;;
16440;SDS011;8330;-33.858;151.184;2023-09-19T02:08:37;6.78;;;3.00;;
16440;SDS011;8330;-33.858;151.184;2023-09-19T02:11:08;4.90;;;2.85;;
16440;SDS011;8330;-33.858;151.184;2023-09-19T02:13:39;4.82;;;2.90;;
16440;SDS011;8330;-33.858;151.184;2023-09-19T02:16:10;3.22;;;2.92;;
16440;SDS011;8330;-33.858;151.184;2023-09-19T02:18:43;4.03;;;2.97;;
16440;SDS011;8330;-33.858;151.184;2023-09-19T02:21:14;3.25;;;2.63;;
16440;SDS011;8330;-33.858;151.184;2023-09-19T02:23:45;3.40;;;3.10;;
16440;SDS011;8330;-33.858;151.184;2023-09-19T02:26:16;4.72;;;2.90;;
16440;SDS011;8330;-33.858;151.184;2023-09-19T02:28:46;5.63;;;2.90;;
16440;SDS011;8330;-33.858;151.184;2023-09-19T02:31:22;3.03;;;2.67;;
16440;SDS011;8330;-33.858;151.184;2023-09-19T02:33:57;5.75;;;3.10;;
16440;SDS011;8330;-33.858;151.184;2023-09-19T02:36:28;3.67;;;2.75;;
16440;SDS011;8330;-33.858;151.184;2023-09-19T02:38:59;4.45;;;2.70;;
16440;SDS011;8330;-33.858;151.184;2023-09-19T02:41:31;4.13;;;2.90;;
16440;SDS011;8330;-33.858;151.184;2023-09-19T02:44:02;4.03;;;2.70;;
16440;SDS011;8330;-33.858;151.184;2023-09-19T02:46:34;4.82;;;3.08;;
16440;SDS011;8330;-33.858;151.184;2023-09-19T02:49:06;3.50;;;3.20;;
16440;SDS011;8330;-33.858;151.184;2023-09-19T02:51:37;3.28;;;2.85;;
16440;SDS011;8330;-33.858;151.184;2023-09-19T02:54:08;3.50;;;2.78;;
16440;SDS011;8330;-33.858;151.184;2023-09-19T02:56:39;4.38;;;3.13;;
16440;SDS011;8330;-33.858;151.184;2023-09-19T02:59:10;3.17;;;2.85;;
16440;SDS011;8330;-33.858;151.184;2023-09-19T03:01:43;3.17;;;2.80;;
16440;SDS011;8330;-33.858;151.184;2023-09-19T03:04:16;3.97;;;2.60;;
16440;SDS011;8330;-33.858;151.184;2023-09-19T03:06:47;3.15;;;2.88;;
16440;SDS011;8330;-33.858;151.184;2023-09-19T03:09:19;8.45;;;3.00;;
16440;SDS011;8330;-33.858;151.184;2023-09-19T03:11:50;4.40;;;2.67;;
16440;SDS011;8330;-33.858;151.184;2023-09-19T03:14:22;3.75;;;2.83;;
16440;SDS011;8330;-33.858;151.184;2023-09-19T03:16:56;5.05;;;2.90;;
16440;SDS011;8330;-33.858;151.184;2023-09-19T03:19:29;5.35;;;3.20;;
16440;SDS011;8330;-33.858;151.184;2023-09-19T03:21:59;2.88;;;2.63;;
16440;SDS011;8330;-33.858;151.184;2023-09-19T03:24:32;3.40;;;2.78;;
16440;SDS011;8330;-33.858;151.184;2023-09-19T03:27:03;3.42;;;2.90;;
16440;SDS011;8330;-33.858;151.184;2023-09-19T03:29:35;2.97;;;2.70;;
16440;SDS011;8330;-33.858;151.184;2023-09-19T03:32:06;2.78;;;2.58;;
16440;SDS011;8330;-33.858;151.184;2023-09-19T03:34:39;3.90;;;2.83;;
16440;SDS011;8330;-33.858;151.184;2023-09-19T03:37:10;3.22;;;2.75;;
16440;SDS011;8330;-33.858;151.184;2023-09-19T03:39:41;3.97;;;2.85;;
16440;SDS011;8330;-33.858;151.184;2023-09-19T03:42:12;2.75;;;2.40;;
16440;SDS011;8330;-33.858;151.184;2023-09-19T03:44:42;3.00;;;2.72;;
16440;SDS011;8330;-33.858;151.184;2023-09-19T03:47:13;4.63;;;2.67;;
16440;SDS011;8330;-33.858;151.184;2023-09-19T03:49:46;2.85;;;2.60;;
16440;SDS011;8330;-33.858;151.184;2023-09-19T03:52:17;9.88;;;3.20;;
16440;SDS011;8330;-33.858;151.184;2023-09-19T03:54:48;3.92;;;2.92;;
16440;SDS011;8330;-33.858;151.184;2023-09-19T03:57:18;3.67;;;2.85;;
16440;SDS011;8330;-33.858;151.184;2023-09-19T03:59:49;2.90;;;2.65;;
16440;SDS011;8330;-33.858;151.184;2023-09-19T04:02:22;3.58;;;2.75;;
16440;SDS011;8330;-33.858;151.184;2023-09-19T04:05:00;4.03;;;2.63;;
16440;SDS011;8330;-33.858;151.184;2023-09-19T04:07:31;7.47;;;3.00;;
16440;SDS011;8330;-33.858;151.184;2023-09-19T04:10:02;5.18;;;2.80;;
16440;SDS011;8330;-33.858;151.184;2023-09-19T04:12:35;4.43;;;2.80;;
16440;SDS011;8330;-33.858;151.184;2023-09-19T04:15:06;3.80;;;2.85;;
16440;SDS011;8330;-33.858;151.184;2023-09-19T04:17:37;3.28;;;2.95;;
16440;SDS011;8330;-33.858;151.184;2023-09-19T04:20:10;4.00;;;2.90;;
16440;SDS011;8330;-33.858;151.184;2023-09-19T04:22:42;4.18;;;2.55;;
16440;SDS011;8330;-33.858;151.184;2023-09-19T04:25:12;2.90;;;2.70;;
16440;SDS011;8330;-33.858;151.184;2023-09-19T04:27:44;4.50;;;2.70;;
16440;SDS011;8330;-33.858;151.184;2023-09-19T04:30:15;3.28;;;2.78;;
16440;SDS011;8330;-33.858;151.184;2023-09-19T04:32:47;3.20;;;2.90;;
16440;SDS011;8330;-33.858;151.184;2023-09-19T04:35:21;3.08;;;2.78;;
16440;SDS011;8330;-33.858;151.184;2023-09-19T04:37:52;3.17;;;2.67;;
16440;SDS011;8330;-33.858;151.184;2023-09-19T04:40:23;4.05;;;2.80;;
16440;SDS011;8330;-33.858;151.184;2023-09-19T04:42:56;3.15;;;2.72;;
16440;SDS011;8330;-33.858;151.184;2023-09-19T04:45:29;7.25;;;2.90;;
16440;SDS011;8330;-33.858;151.184;2023-09-19T04:48:13;6.90;;;4.63;;
16440;SDS011;8330;-33.858;151.184;2023-09-19T04:50:47;8.63;;;4.88;;
16440;SDS011;8330;-33.858;151.184;2023-09-19T04:53:21;11.93;;;5.65;;
16440;SDS011;8330;-33.858;151.184;2023-09-19T04:55:56;11.90;;;6.47;;
16440;SDS011;8330;-33.858;151.184;2023-09-19T04:58:26;11.25;;;6.53;;
16440;SDS011;8330;-33.858;151.184;2023-09-19T05:00:57;12.10;;;5.30;;
16440;SDS011;8330;-33.858;151.184;2023-09-19T05:03:34;13.27;;;6.53;;
16440;SDS011;8330;-33.858;151.184;2023-09-19T05:06:13;15.38;;;6.85;;
16440;SDS011;8330;-33.858;151.184;2023-09-19T05:08:50;13.40;;;7.00;;
16440;SDS011;8330;-33.858;151.184;2023-09-19T05:11:22;13.75;;;7.18;;
16440;SDS011;8330;-33.858;151.184;2023-09-19T05:13:53;16.50;;;7.22;;
16440;SDS011;8330;-33.858;151.184;2023-09-19T05:16:28;15.93;;;7.13;;
16440;SDS011;8330;-33.858;151.184;2023-09-19T05:19:00;15.48;;;7.93;;
16440;SDS011;8330;-33.858;151.184;2023-09-19T05:21:33;19.33;;;8.20;;
16440;SDS011;8330;-33.858;151.184;2023-09-19T05:24:08;17.75;;;7.57;;
16440;SDS011;8330;-33.858;151.184;2023-09-19T05:26:40;19.88;;;8.18;;
16440;SDS011;8330;-33.858;151.184;2023-09-19T05:29:12;22.13;;;7.72;;
16440;SDS011;8330;-33.858;151.184;2023-09-19T05:31:43;15.45;;;7.50;;
16440;SDS011;8330;-33.858;151.184;2023-09-19T05:34:14;17.10;;;7.43;;
16440;SDS011;8330;-33.858;151.184;2023-09-19T05:36:47;18.27;;;8.02;;
16440;SDS011;8330;-33.858;151.184;2023-09-19T05:39:21;17.40;;;7.80;;
16440;SDS011;8330;-33.858;151.184;2023-09-19T05:41:55;15.27;;;7.50;;
16440;SDS011;8330;-33.858;151.184;2023-09-19T05:44:27;18.60;;;7.50;;
16440;SDS011;8330;-33.858;151.184;2023-09-19T05:46:58;15.68;;;7.32;;
16440;SDS011;8330;-33.858;151.184;2023-09-19T05:49:29;23.33;;;7.40;;
16440;SDS011;8330;-33.858;151.184;2023-09-19T05:52:02;16.27;;;7.07;;
16440;SDS011;8330;-33.858;151.184;2023-09-19T05:54:33;18.15;;;7.28;;
16440;SDS011;8330;-33.858;151.184;2023-09-19T05:57:04;17.60;;;7.35;;
16440;SDS011;8330;-33.858;151.184;2023-09-19T05:59:36;18.02;;;6.78;;
16440;SDS011;8330;-33.858;151.184;2023-09-19T06:02:08;15.60;;;7.20;;
16440;SDS011;8330;-33.858;151.184;2023-09-19T06:04:40;17.00;;;6.70;;
16440;SDS011;8330;-33.858;151.184;2023-09-19T06:07:12;15.10;;;6.65;;
16440;SDS011;8330;-33.858;151.184;2023-09-19T06:09:43;18.02;;;7.03;;
16440;SDS011;8330;-33.858;151.184;2023-09-19T06:12:14;14.93;;;5.93;;
16440;SDS011;8330;-33.858;151.184;2023-09-19T06:14:45;15.93;;;6.55;;
16440;SDS011;8330;-33.858;151.184;2023-09-19T06:17:15;13.77;;;6.10;;
16440;SDS011;8330;-33.858;151.184;2023-09-19T06:19:48;12.40;;;5.93;;
16440;SDS011;8330;-33.858;151.184;2023-09-19T06:22:22;18.52;;;6.38;;
16440;SDS011;8330;-33.858;151.184;2023-09-19T06:24:52;16.02;;;6.05;;
16440;SDS011;8330;-33.858;151.184;2023-09-19T06:27:23;15.07;;;6.22;;
16440;SDS011;8330;-33.858;151.184;2023-09-19T06:29:55;14.77;;;5.72;;
16440;SDS011;8330;-33.858;151.184;2023-09-19T06:32:27;13.90;;;5.60;;
16440;SDS011;8330;-33.858;151.184;2023-09-19T06:34:58;13.35;;;5.93;;
16440;SDS011;8330;-33.858;151.184;2023-09-19T06:37:31;14.50;;;6.38;;
16440;SDS011;8330;-33.858;151.184;2023-09-19T06:40:05;12.88;;;5.43;;
16440;SDS011;8330;-33.858;151.184;2023-09-19T06:42:44;13.48;;;5.68;;
16440;SDS011;8330;-33.858;151.184;2023-09-19T06:45:19;11.80;;;5.30;;
16440;SDS011;8330;-33.858;151.184;2023-09-19T06:47:52;11.90;;;5.07;;
16440;SDS011;8330;-33.858;151.184;2023-09-19T06:50:26;13.73;;;5.55;;
16440;SDS011;8330;-33.858;151.184;2023-09-19T06:52:58;13.38;;;5.38;;
16440;SDS011;8330;-33.858;151.184;2023-09-19T06:55:29;12.80;;;5.72;;
16440;SDS011;8330;-33.858;151.184;2023-09-19T06:58:01;13.18;;;5.53;;
16440;SDS011;8330;-33.858;151.184;2023-09-19T07:00:34;14.25;;;5.78;;
16440;SDS011;8330;-33.858;151.184;2023-09-19T07:03:05;15.90;;;5.65;;
16440;SDS011;8330;-33.858;151.184;2023-09-19T07:05:37;15.50;;;6.22;;
16440;SDS011;8330;-33.858;151.184;2023-09-19T07:08:11;16.67;;;6.20;;
16440;SDS011;8330;-33.858;151.184;2023-09-19T07:10:42;16.98;;;6.53;;
16440;SDS011;8330;-33.858;151.184;2023-09-19T07:13:14;16.77;;;6.80;;
16440;SDS011;8330;-33.858;151.184;2023-09-19T07:15:52;21.88;;;6.97;;
16440;SDS011;8330;-33.858;151.184;2023-09-19T07:18:36;15.25;;;6.95;;
16440;SDS011;8330;-33.858;151.184;2023-09-19T07:21:11;13.13;;;6.68;;
16440;SDS011;8330;-33.858;151.184;2023-09-19T07:23:44;14.43;;;5.95;;
16440;SDS011;8330;-33.858;151.184;2023-09-19T07:26:15;14.52;;;6.25;;
16440;SDS011;8330;-33.858;151.184;2023-09-19T07:28:47;13.23;;;6.07;;
16440;SDS011;8330;-33.858;151.184;2023-09-19T07:31:18;13.90;;;5.93;;
16440;SDS011;8330;-33.858;151.184;2023-09-19T07:33:49;15.85;;;5.85;;
16440;SDS011;8330;-33.858;151.184;2023-09-19T07:36:20;16.98;;;6.38;;
16440;SDS011;8330;-33.858;151.184;2023-09-19T07:38:57;15.85;;;5.82;;
16440;SDS011;8330;-33.858;151.184;2023-09-19T07:41:40;13.55;;;5.47;;
16440;SDS011;8330;-33.858;151.184;2023-09-19T07:44:23;15.32;;;5.60;;
16440;SDS011;8330;-33.858;151.184;2023-09-19T07:46:54;14.95;;;6.05;;
16440;SDS011;8330;-33.858;151.184;2023-09-19T07:49:25;14.02;;;6.13;;
16440;SDS011;8330;-33.858;151.184;2023-09-19T07:51:55;17.98;;;5.78;;
16440;SDS011;8330;-33.858;151.184;2023-09-19T07:54:34;14.10;;;5.85;;
16440;SDS011;8330;-33.858;151.184;2023-09-19T07:57:05;16.13;;;5.97;;
16440;SDS011;8330;-33.858;151.184;2023-09-19T07:59:35;13.57;;;5.85;;
16440;SDS011;8330;-33.858;151.184;2023-09-19T08:02:08;14.80;;;5.82;;
16440;SDS011;8330;-33.858;151.184;2023-09-19T08:04:42;14.40;;;5.78;;
16440;SDS011;8330;-33.858;151.184;2023-09-19T08:07:13;12.07;;;5.95;;
16440;SDS011;8330;-33.858;151.184;2023-09-19T08:09:46;14.88;;;6.45;;
16440;SDS011;8330;-33.858;151.184;2023-09-19T08:12:17;16.30;;;6.72;;
16440;SDS011;8330;-33.858;151.184;2023-09-19T08:14:50;15.48;;;6.78;;
16440;SDS011;8330;-33.858;151.184;2023-09-19T08:17:21;16.40;;;7.28;;
16440;SDS011;8330;-33.858;151.184;2023-09-19T08:19:52;14.10;;;6.60;;
16440;SDS011;8330;-33.858;151.184;2023-09-19T08:22:23;13.63;;;6.57;;
16440;SDS011;8330;-33.858;151.184;2023-09-19T08:24:56;18.05;;;6.93;;
16440;SDS011;8330;-33.858;151.184;2023-09-19T08:27:28;17.65;;;6.35;;
16440;SDS011;8330;-33.858;151.184;2023-09-19T08:29:58;17.10;;;5.85;;
16440;SDS011;8330;-33.858;151.184;2023-09-19T08:32:29;14.25;;;6.25;;
16440;SDS011;8330;-33.858;151.184;2023-09-19T08:35:00;14.30;;;6.20;;
16440;SDS011;8330;-33.858;151.184;2023-09-19T08:37:30;12.75;;;5.90;;
16440;SDS011;8330;-33.858;151.184;2023-09-19T08:40:04;12.52;;;5.85;;
16440;SDS011;8330;-33.858;151.184;2023-09-19T08:42:48;14.88;;;5.32;;
16440;SDS011;8330;-33.858;151.184;2023-09-19T08:45:20;15.77;;;6.10;;
16440;SDS011;8330;-33.858;151.184;2023-09-19T08:47:55;16.88;;;6.22;;
16440;SDS011;8330;-33.858;151.184;2023-09-19T08:50:33;14.07;;;5.80;;
16440;SDS011;8330;-33.858;151.184;2023-09-19T08:53:10;17.27;;;6.07;;
16440;SDS011;8330;-33.858;151.184;2023-09-19T08:55:45;13.85;;;5.63;;
16440;SDS011;8330;-33.858;151.184;2023-09-19T08:58:20;14.15;;;5.97;;
16440;SDS011;8330;-33.858;151.184;2023-09-19T09:00:56;19.65;;;6.53;;
16440;SDS011;8330;-33.858;151.184;2023-09-19T09:03:32;15.23;;;5.53;;
16440;SDS011;8330;-33.858;151.184;2023-09-19T09:06:03;12.63;;;5.80;;
16440;SDS011;8330;-33.858;151.184;2023-09-19T09:08:37;15.95;;;6.13;;
16440;SDS011;8330;-33.858;151.184;2023-09-19T09:11:10;18.02;;;6.45;;
16440;SDS011;8330;-33.858;151.184;2023-09-19T09:13:42;21.30;;;7.22;;
16440;SDS011;8330;-33.858;151.184;2023-09-19T09:16:13;20.23;;;6.90;;
16440;SDS011;8330;-33.858;151.184;2023-09-19T09:18:44;18.88;;;6.43;;
16440;SDS011;8330;-33.858;151.184;2023-09-19T09:21:18;15.52;;;6.75;;
16440;SDS011;8330;-33.858;151.184;2023-09-19T09:23:50;13.98;;;6.18;;
16440;SDS011;8330;-33.858;151.184;2023-09-19T09:26:33;16.20;;;6.45;;
16440;SDS011;8330;-33.858;151.184;2023-09-19T09:29:11;14.10;;;5.97;;
16440;SDS011;8330;-33.858;151.184;2023-09-19T09:31:42;15.60;;;6.13;;
16440;SDS011;8330;-33.858;151.184;2023-09-19T09:34:14;18.00;;;6.55;;
16440;SDS011;8330;-33.858;151.184;2023-09-19T09:36:47;17.27;;;7.22;;
16440;SDS011;8330;-33.858;151.184;2023-09-19T09:39:29;15.90;;;6.70;;
16440;SDS011;8330;-33.858;151.184;2023-09-19T09:42:03;11.98;;;5.95;;
16440;SDS011;8330;-33.858;151.184;2023-09-19T09:44:34;16.15;;;6.57;;
16440;SDS011;8330;-33.858;151.184;2023-09-19T09:47:09;19.10;;;6.47;;
16440;SDS011;8330;-33.858;151.184;2023-09-19T09:50:05;19.10;;;6.90;;
16440;SDS011;8330;-33.858;151.184;2023-09-19T09:52:46;15.85;;;6.88;;
16440;SDS011;8330;-33.858;151.184;2023-09-19T09:55:18;16.58;;;6.32;;
16440;SDS011;8330;-33.858;151.184;2023-09-19T09:57:50;15.77;;;6.93;;
16440;SDS011;8330;-33.858;151.184;2023-09-19T10:00:55;15.18;;;6.22;;
16440;SDS011;8330;-33.858;151.184;2023-09-19T10:03:32;17.88;;;6.45;;
16440;SDS011;8330;-33.858;151.184;2023-09-19T10:06:08;18.50;;;6.18;;
16440;SDS011;8330;-33.858;151.184;2023-09-19T10:08:59;15.35;;;6.30;;
16440;SDS011;8330;-33.858;151.184;2023-09-19T10:11:41;12.27;;;5.82;;
16440;SDS011;8330;-33.858;151.184;2023-09-19T10:14:17;15.57;;;6.30;;
16440;SDS011;8330;-33.858;151.184;2023-09-19T10:16:50;14.48;;;6.00;;
16440;SDS011;8330;-33.858;151.184;2023-09-19T10:19:28;18.02;;;6.20;;
16440;SDS011;8330;-33.858;151.184;2023-09-19T10:22:05;15.52;;;5.85;;
16440;SDS011;8330;-33.858;151.184;2023-09-19T10:24:36;15.43;;;6.28;;
16440;SDS011;8330;-33.858;151.184;2023-09-19T10:27:09;14.00;;;6.13;;
16440;SDS011;8330;-33.858;151.184;2023-09-19T10:29:44;16.55;;;7.07;;
16440;SDS011;8330;-33.858;151.184;2023-09-19T10:32:18;18.13;;;6.85;;
16440;SDS011;8330;-33.858;151.184;2023-09-19T10:34:51;20.17;;;7.00;;
16440;SDS011;8330;-33.858;151.184;2023-09-19T10:37:31;19.02;;;7.28;;
16440;SDS011;8330;-33.858;151.184;2023-09-19T10:40:04;25.05;;;7.70;;
16440;SDS011;8330;-33.858;151.184;2023-09-19T10:42:38;23.60;;;7.55;;
16440;SDS011;8330;-33.858;151.184;2023-09-19T10:45:21;22.33;;;7.28;;
16440;SDS011;8330;-33.858;151.184;2023-09-19T10:48:05;21.45;;;7.55;;
16440;SDS011;8330;-33.858;151.184;2023-09-19T10:50:36;20.02;;;7.07;;
16440;SDS011;8330;-33.858;151.184;2023-09-19T10:53:15;20.73;;;6.88;;
16440;SDS011;8330;-33.858;151.184;2023-09-19T10:55:54;16.33;;;6.68;;
16440;SDS011;8330;-33.858;151.184;2023-09-19T10:58:36;20.52;;;7.53;;
16440;SDS011;8330;-33.858;151.184;2023-09-19T11:01:23;22.15;;;7.63;;
16440;SDS011;8330;-33.858;151.184;2023-09-19T11:04:24;20.17;;;6.68;;
16440;SDS011;8330;-33.858;151.184;2023-09-19T11:07:03;17.27;;;6.90;;
16440;SDS011;8330;-33.858;151.184;2023-09-19T11:09:48;19.90;;;7.57;;
16440;SDS011;8330;-33.858;151.184;2023-09-19T11:18:56;16.17;;;6.47;;
16440;SDS011;8330;-33.858;151.184;2023-09-19T11:21:52;11.20;;;5.75;;
16440;SDS011;8330;-33.858;151.184;2023-09-19T11:24:28;11.73;;;5.57;;
16440;SDS011;8330;-33.858;151.184;2023-09-19T11:33:20;12.45;;;5.70;;
16440;SDS011;8330;-33.858;151.184;2023-09-19T11:36:06;12.55;;;5.32;;
16440;SDS011;8330;-33.858;151.184;2023-09-19T11:39:00;10.45;;;5.00;;
16440;SDS011;8330;-33.858;151.184;2023-09-19T11:41:41;11.50;;;5.45;;
16440;SDS011;8330;-33.858;151.184;2023-09-19T11:44:34;12.73;;;5.50;;
16440;SDS011;8330;-33.858;151.184;2023-09-19T11:47:07;9.43;;;5.18;;
16440;SDS011;8330;-33.858;151.184;2023-09-19T11:49:52;10.10;;;5.40;;
16440;SDS011;8330;-33.858;151.184;2023-09-19T11:52:27;12.05;;;5.22;;
16440;SDS011;8330;-33.858;151.184;2023-09-19T11:55:03;9.50;;;5.00;;
16440;SDS011;8330;-33.858;151.184;2023-09-19T11:57:37;11.52;;;5.50;;
16440;SDS011;8330;-33.858;151.184;2023-09-19T12:00:10;11.48;;;5.53;;
16440;SDS011;8330;-33.858;151.184;2023-09-19T12:02:47;11.20;;;5.35;;
16440;SDS011;8330;-33.858;151.184;2023-09-19T12:05:28;12.82;;;5.57;;
16440;SDS011;8330;-33.858;151.184;2023-09-19T12:08:01;13.15;;;5.32;;
16440;SDS011;8330;-33.858;151.184;2023-09-19T12:10:34;12.20;;;5.53;;
16440;SDS011;8330;-33.858;151.184;2023-09-19T12:13:17;12.70;;;5.35;;
16440;SDS011;8330;-33.858;151.184;2023-09-19T12:15:49;9.60;;;5.13;;
16440;SDS011;8330;-33.858;151.184;2023-09-19T12:18:29;10.75;;;5.60;;
16440;SDS011;8330;-33.858;151.184;2023-09-19T12:21:02;12.05;;;4.78;;
16440;SDS011;8330;-33.858;151.184;2023-09-19T12:23:35;10.80;;;5.45;;
16440;SDS011;8330;-33.858;151.184;2023-09-19T12:26:07;9.10;;;4.78;;
16440;SDS011;8330;-33.858;151.184;2023-09-19T12:28:41;12.40;;;5.05;;
16440;SDS011;8330;-33.858;151.184;2023-09-19T12:31:13;9.40;;;5.25;;
16440;SDS011;8330;-33.858;151.184;2023-09-19T12:33:45;10.82;;;5.18;;
16440;SDS011;8330;-33.858;151.184;2023-09-19T12:36:22;8.85;;;4.93;;
16440;SDS011;8330;-33.858;151.184;2023-09-19T12:38:58;7.20;;;4.63;;
16440;SDS011;8330;-33.858;151.184;2023-09-19T12:41:35;8.40;;;4.63;;
16440;SDS011;8330;-33.858;151.184;2023-09-19T12:44:06;8.90;;;4.50;;
16440;SDS011;8330;-33.858;151.184;2023-09-19T12:46:39;9.73;;;4.68;;
16440;SDS011;8330;-33.858;151.184;2023-09-19T12:49:17;10.65;;;4.20;;
16440;SDS011;8330;-33.858;151.184;2023-09-19T12:51:49;7.30;;;3.90;;
16440;SDS011;8330;-33.858;151.184;2023-09-19T12:54:27;6.13;;;3.90;;
16440;SDS011;8330;-33.858;151.184;2023-09-19T12:57:09;7.30;;;3.63;;
16440;SDS011;8330;-33.858;151.184;2023-09-19T12:59:53;3.90;;;3.38;;
16440;SDS011;8330;-33.858;151.184;2023-09-19T13:02:25;4.00;;;3.35;;
16440;SDS011;8330;-33.858;151.184;2023-09-19T13:04:56;5.53;;;3.20;;
16440;SDS011;8330;-33.858;151.184;2023-09-19T13:07:43;4.72;;;3.08;;
16440;SDS011;8330;-33.858;151.184;2023-09-19T13:10:17;3.67;;;2.95;;
16440;SDS011;8330;-33.858;151.184;2023-09-19T13:12:50;6.20;;;3.22;;
16440;SDS011;8330;-33.858;151.184;2023-09-19T13:15:22;4.20;;;2.80;;
16440;SDS011;8330;-33.858;151.184;2023-09-19T13:17:55;5.55;;;2.92;;
16440;SDS011;8330;-33.858;151.184;2023-09-19T13:20:28;3.78;;;3.00;;
16440;SDS011;8330;-33.858;151.184;2023-09-19T13:23:05;4.53;;;2.70;;
16440;SDS011;8330;-33.858;151.184;2023-09-19T13:25:59;4.35;;;2.90;;
16440;SDS011;8330;-33.858;151.184;2023-09-19T13:28:30;5.70;;;2.90;;
16440;SDS011;8330;-33.858;151.184;2023-09-19T13:31:03;3.60;;;2.83;;
16440;SDS011;8330;-33.858;151.184;2023-09-19T13:33:34;5.72;;;3.10;;
16440;SDS011;8330;-33.858;151.184;2023-09-19T13:36:11;2.92;;;2.72;;
16440;SDS011;8330;-33.858;151.184;2023-09-19T13:38:42;4.50;;;2.95;;
16440;SDS011;8330;-33.858;151.184;2023-09-19T13:41:17;3.13;;;2.83;;
16440;SDS011;8330;-33.858;151.184;2023-09-19T13:43:48;3.58;;;2.88;;
16440;SDS011;8330;-33.858;151.184;2023-09-19T13:46:19;3.88;;;2.80;;
16440;SDS011;8330;-33.858;151.184;2023-09-19T13:48:52;3.47;;;2.85;;
16440;SDS011;8330;-33.858;151.184;2023-09-19T13:51:26;3.25;;;2.92;;
16440;SDS011;8330;-33.858;151.184;2023-09-19T13:53:58;3.85;;;2.92;;
16440;SDS011;8330;-33.858;151.184;2023-09-19T13:56:30;5.50;;;2.53;;
16440;SDS011;8330;-33.858;151.184;2023-09-19T13:59:02;3.67;;;3.10;;
16440;SDS011;8330;-33.858;151.184;2023-09-19T14:01:33;3.72;;;2.97;;
16440;SDS011;8330;-33.858;151.184;2023-09-19T14:04:06;4.30;;;2.88;;
16440;SDS011;8330;-33.858;151.184;2023-09-19T14:06:38;4.32;;;2.90;;
16440;SDS011;8330;-33.858;151.184;2023-09-19T14:09:12;4.20;;;2.67;;
16440;SDS011;8330;-33.858;151.184;2023-09-19T14:11:47;3.88;;;2.97;;
16440;SDS011;8330;-33.858;151.184;2023-09-19T14:14:18;5.65;;;3.10;;
16440;SDS011;8330;-33.858;151.184;2023-09-19T14:16:49;5.35;;;3.40;;
16440;SDS011;8330;-33.858;151.184;2023-09-19T14:19:20;4.63;;;2.83;;
16440;SDS011;8330;-33.858;151.184;2023-09-19T14:21:51;3.30;;;2.70;;
16440;SDS011;8330;-33.858;151.184;2023-09-19T14:24:22;3.05;;;2.75;;
16440;SDS011;8330;-33.858;151.184;2023-09-19T14:26:55;3.45;;;3.00;;
16440;SDS011;8330;-33.858;151.184;2023-09-19T14:29:26;4.47;;;2.60;;
16440;SDS011;8330;-33.858;151.184;2023-09-19T14:31:58;3.45;;;2.83;;
16440;SDS011;8330;-33.858;151.184;2023-09-19T14:34:29;4.80;;;3.00;;
16440;SDS011;8330;-33.858;151.184;2023-09-19T14:36:59;4.78;;;3.10;;
16440;SDS011;8330;-33.858;151.184;2023-09-19T14:39:30;4.80;;;2.80;;
16440;SDS011;8330;-33.858;151.184;2023-09-19T14:42:04;3.60;;;2.97;;
16440;SDS011;8330;-33.858;151.184;2023-09-19T14:44:35;4.53;;;3.00;;
16440;SDS011;8330;-33.858;151.184;2023-09-19T14:47:06;4.80;;;2.80;;
16440;SDS011;8330;-33.858;151.184;2023-09-19T14:49:39;2.90;;;2.70;;
16440;SDS011;8330;-33.858;151.184;2023-09-19T14:52:11;3.90;;;3.03;;
16440;SDS011;8330;-33.858;151.184;2023-09-19T14:54:42;4.32;;;3.05;;
16440;SDS011;8330;-33.858;151.184;2023-09-19T14:57:15;3.42;;;2.75;;
16440;SDS011;8330;-33.858;151.184;2023-09-19T14:59:45;4.93;;;3.00;;
16440;SDS011;8330;-33.858;151.184;2023-09-19T15:02:16;3.33;;;2.83;;
16440;SDS011;8330;-33.858;151.184;2023-09-19T15:04:47;3.17;;;2.85;;
16440;SDS011;8330;-33.858;151.184;2023-09-19T15:07:18;3.28;;;2.97;;
16440;SDS011;8330;-33.858;151.184;2023-09-19T15:09:49;3.78;;;2.90;;